Station TWCO1 - Toledo Crib, OH Image indicating link to RSS feed of recent meteorological observations for station TWCO1


Conditions at TWCO1 as of
(5:20 pm EDT)
2120 GMT on 04/17/2024:
     

Click on the graph icon in the table below to see a time series plot of the last five days of that observation.

5-day plot - Wind Direction Wind Direction (WDIR): SW ( 220 deg true )
5-day plot - Wind Speed Wind Speed (WSPD): 16 kts
5-day plot - Wind Gust Wind Gust (GST): 19 kts
5-day plot - Air Temperature Air Temperature (ATMP): 63.3 °F
5-day plot - Dew Point Dew Point (DEWP): 58.3 °F
5-day plot - Wind Speed at 10 Meters Wind Speed at 10 meters (WSPD10M): 16 kts
5-day plot - Wind Speed at 20 Meters Wind Speed at 20 meters (WSPD20M): 16 kts
5-day plot -  Wind Speed, Wind Gust and Atmospheric Pressure Combined plot of Wind Speed, Gust, and Air Pressure
Previous observations
TIME
(EDT)
5-day plot - Wind Direction
WDIR
 
5-day plot - Wind Speed
WSPD
kts
5-day plot - Wind Gust
GST
kts
5-day plot - Wave Height
WVHT
ft
5-day plot - Dominant Wave Period
DPD
sec
5-day plot - Average Wave Period
APD
sec
5-day plot - Mean Wave Direction
MWD
 
5-day plot - Atmospheric Pressure
PRES
in
5-day plot - Pressure Tendency
PTDY
in
5-day plot - Air Temperature
ATMP
°F
5-day plot - Water Temperature
WTMP
°F
5-day plot - Dew Point
DEWP
°F
5-day plot - Salinity
SAL
psu
5-day plot - Visibility
VIS
nmi
5-day plot - Tide (above MLLW)
TIDE
ft
2024-04-17 05:10 pm SW 13 17------ 63.3- 58.6---
2024-04-17 05:00 pm SW 12 14------ 63.5- 59.2---
2024-04-17 04:50 pm SW 12 15------ 63.0- 58.6---
2024-04-17 04:40 pm SW 12 15------ 62.4- 59.2---
2024-04-17 04:30 pm SW 19 24------ 63.9- 58.5---
2024-04-17 04:20 pm SW 22 28------ 64.9- 58.8---
2024-04-17 04:10 pm SW 22 30------ 65.3- 60.6---
2024-04-17 04:00 pm SW 23 28------ 64.9- 61.2---
2024-04-17 03:50 pm SW 21 26------ 64.0- 60.4---
2024-04-17 03:40 pm SW 25 32------ 64.9- 60.6---
2024-04-17 03:30 pm SW 27 45------ 65.1- 61.9---
2024-04-17 03:20 pm SW 19 22------ 66.7- 60.6---
2024-04-17 03:10 pm SW 22 28------ 68.2- 61.3---
2024-04-17 03:00 pm SW 26 35------ 70.5- 61.2---
2024-04-17 02:50 pm SW 27 34------ 72.0- 61.0---
2024-04-17 02:40 pm SW 25 34------ 72.5- 61.0---
2024-04-17 02:30 pm SW 23 30------ 72.1- 61.2---
2024-04-17 02:20 pm SW 22 28------ 72.1- 61.2---
2024-04-17 02:00 pm SW 20 25------ 71.2- 61.5---
2024-04-17 01:50 pm SW 21 24------ 71.2- 61.9---
2024-04-17 01:40 pm SW 23 28------ 70.9- 61.9---
2024-04-17 01:30 pm SW 22 29------ 70.0- 61.7---
2024-04-17 01:20 pm SW 25 30------ 69.6- 61.5---
2024-04-17 01:10 pm SW 21 27------ 69.1- 61.3---
2024-04-17 01:00 pm SW 22 27------ 69.3- 61.5---
2024-04-17 12:50 pm SW 22 27------ 68.9- 61.5---
2024-04-17 12:40 pm SW 20 28------ 68.4- 61.5---
2024-04-17 12:30 pm SW 18 22------ 67.6- 61.3---
2024-04-17 12:20 pm SW 17 22------ 66.9- 61.2---
2024-04-17 12:10 pm SW 17 21------ 66.9- 61.2---
2024-04-17 12:00 pm SW 17 22------ 66.7- 61.0---
2024-04-17 11:50 am SW 17 22------ 66.6- 61.0---
2024-04-17 11:40 am SW 18 22------ 66.2- 60.8---
2024-04-17 11:30 am SW 16 22------ 65.7- 60.6---
2024-04-17 11:20 am SW 16 19------ 65.5- 60.3---
2024-04-17 11:10 am SW 18 22------ 65.7- 60.3---
2024-04-17 11:00 am SW 19 25------ 65.7- 60.3---
2024-04-17 10:50 am SW 19 23------ 65.7- 60.1---
2024-04-17 10:40 am SW 21 29------ 66.0- 60.3---
2024-04-17 10:30 am SW 21 27------ 66.0- 60.1---
2024-04-17 10:20 am SW 21 27------ 65.8- 59.9---
2024-04-17 10:10 am SW 21 26------ 65.8- 59.7---
2024-04-17 10:00 am SW 21 27------ 65.8- 59.5---
2024-04-17 09:50 am SW 20 27------ 65.8- 59.5---
2024-04-17 09:40 am SW 20 24------ 65.1- 59.0---
2024-04-17 09:30 am SW 21 26------ 65.3- 59.0---
2024-04-17 09:20 am SW 20 27------ 64.6- 58.6---
2024-04-17 09:10 am SW 17 21------ 64.2- 58.3---
2024-04-17 09:00 am SW 17 20------ 64.2- 58.1---
2024-04-17 08:50 am SW 17 19------ 64.0- 57.7---
2024-04-17 08:40 am SW 16 25------ 63.3- 57.6---
2024-04-17 08:30 am SW 15 17------ 62.6- 57.2---
2024-04-17 08:20 am SW 14 16------ 62.1- 57.0---
2024-04-17 08:10 am SW 11 13------ 60.8- 56.5---
2024-04-17 08:00 am SW 10 12------ 59.4- 55.4---
2024-04-17 07:50 am SW 12 13------ 58.5- 54.5---
2024-04-17 07:40 am SW 12 13------ 58.8- 54.5---
2024-04-17 07:30 am SW 13 14------ 58.3- 54.1---
2024-04-17 07:20 am SW 13 15------ 57.4- 53.6---
2024-04-17 07:10 am SW 12 13------ 57.2- 53.4---
2024-04-17 07:00 am SW 10 11------ 57.4- 53.6---
2024-04-17 06:50 am SW 10 11------ 56.3- 53.1---
2024-04-17 06:40 am SW 9 9------ 56.3- 53.2---
2024-04-17 06:30 am SW 10 12------ 55.6- 53.1---
2024-04-17 06:20 am SW 12 14------ 54.9- 52.3---
2024-04-17 06:10 am SW 13 14------ 54.0- 51.3---
2024-04-17 06:00 am SW 14 15------ 53.6- 50.9---
2024-04-17 05:50 am SW 12 15------ 53.2- 50.4---
2024-04-17 05:40 am SW 14 17------ 52.9- 50.4---
2024-04-17 05:30 am SW 13 15------ 52.7- 50.4---
2024-04-17 05:20 am SW 9 11------ 53.4- 50.5---
2024-04-17 05:10 am SW 6 8------ 54.0- 50.2---
2024-04-17 05:00 am SW 6 7------ 53.6- 50.2---
2024-04-17 04:50 am SW 7 9------ 54.1- 50.5---
2024-04-17 04:40 am SW 5 7------ 54.3- 50.9---
2024-04-17 04:30 am SW 7 9------ 53.2- 50.5---
2024-04-17 04:20 am SW 6 9------ 52.9- 49.8---
2024-04-17 04:10 am SW 6 8------ 53.2- 49.8---
2024-04-17 04:00 am SW 5 7------ 53.4- 49.6---
2024-04-17 03:50 am SW 8 10------ 53.2- 48.6---
2024-04-17 03:40 am SW 10 13------ 52.9- 48.2---
2024-04-17 03:30 am SW 11 14------ 52.5- 47.7---
2024-04-17 03:20 am SW 14 18------ 52.5- 47.7---
2024-04-17 03:10 am SW 17 20------ 52.3- 47.5---
2024-04-17 03:00 am SW 18 21------ 52.2- 47.5---
2024-04-17 02:50 am SW 17 20------ 52.3- 47.3---
2024-04-17 02:40 am SW 17 20------ 52.3- 47.3---
2024-04-17 02:30 am SW 17 20------ 52.5- 47.1---
2024-04-17 02:20 am SW 17 20------ 52.7- 46.9---
2024-04-17 02:10 am SW 19 22------ 52.9- 46.8---
2024-04-17 02:00 am SW 21 25------ 53.1- 46.6---
2024-04-17 01:50 am SW 22 27------ 53.4- 46.6---
2024-04-17 01:40 am SW 23 27------ 53.6- 46.2---
2024-04-17 01:30 am SW 24 30------ 53.8- 46.0---
2024-04-17 01:20 am SW 25 29------ 53.8- 46.0---
2024-04-17 01:10 am SW 24 29------ 53.6- 45.9---
2024-04-17 01:00 am SW 24 29------ 53.8- 45.9---
2024-04-17 12:50 am SW 23 30------ 53.6- 45.7---
2024-04-17 12:40 am SW 21 25------ 53.8- 45.9---
2024-04-17 12:30 am SW 21 26------ 54.1- 45.3---
2024-04-17 12:20 am SW 21 25------ 54.5- 45.1---
2024-04-17 12:10 am SW 24 29------ 54.9- 44.8---
2024-04-16 11:50 pm SW 24 28------ 55.4- 44.2---
2024-04-16 11:40 pm SW 23 27------ 55.4- 44.4---
2024-04-16 11:30 pm SW 21 25------ 55.2- 44.6---
2024-04-16 11:20 pm SW 21 26------ 55.0- 44.6---
2024-04-16 11:10 pm SW 22 26------ 54.9- 44.8---
2024-04-16 11:00 pm SW 21 26------ 54.7- 45.0---
2024-04-16 10:50 pm SW 21 24------ 54.5- 45.0---
2024-04-16 10:40 pm SW 22 25------ 54.5- 44.6---
2024-04-16 10:30 pm SW 21 26------ 54.1- 45.0---
2024-04-16 10:20 pm SW 21 26------ 53.8- 45.0---
2024-04-16 10:10 pm SW 22 27------ 53.6- 45.3---
2024-04-16 10:00 pm SW 22 27------ 53.4- 45.1---
2024-04-16 09:50 pm SW 21 25------ 53.2- 45.3---
2024-04-16 09:40 pm SW 21 26------ 53.2- 45.3---
2024-04-16 09:30 pm SW 21 26------ 53.2- 45.1---
2024-04-16 09:20 pm SW 20 23------ 53.2- 45.3---
2024-04-16 09:10 pm SW 19 23------ 53.1- 45.5---
2024-04-16 08:50 pm SW 19 23------ 52.9- 45.1---
2024-04-16 08:40 pm SW 19 22------ 52.5- 45.0---
2024-04-16 08:30 pm SW 20 24------ 52.2- 45.0---
2024-04-16 08:20 pm SW 21 24------ 52.0- 45.0---
2024-04-16 08:10 pm SW 21 24------ 52.0- 45.0---
2024-04-16 08:00 pm SW 20 24------ 52.0- 45.3---
2024-04-16 07:50 pm SW 20 23------ 51.8- 45.3---
2024-04-16 07:40 pm SW 19 23------ 51.6- 45.5---
2024-04-16 07:30 pm SW 19 23------ 51.6- 45.1---
2024-04-16 07:20 pm SW 19 23------ 51.6- 45.1---
2024-04-16 07:10 pm SW 19 21------ 51.8- 45.0---
2024-04-16 07:00 pm SW 18 21------ 51.8- 45.1---
2024-04-16 06:50 pm SW 17 20------ 51.6- 45.0---
2024-04-16 06:40 pm SW 17 21------ 51.8- 45.1---
2024-04-16 06:30 pm SW 19 23------ 51.8- 45.0---
2024-04-16 06:20 pm SW 20 23------ 51.8- 44.8---
2024-04-16 06:10 pm SW 20 23------ 51.4- 45.1---
2024-04-16 06:00 pm SW 18 21------ 50.9- 45.7---
2024-04-16 05:50 pm SW 18 21------ 50.7- 45.7---
2024-04-16 05:40 pm SW 19 22------ 50.7- 45.3---
2024-04-16 05:30 pm SW 20 23------ 50.5- 45.0---
2024-04-16 05:20 pm SW 20 23------ 50.5- 44.8---
2024-04-16 05:10 pm SW 21 25------ 50.5- 45.0---
2024-04-16 05:00 pm SW 22 26------ 50.4- 44.6---
2024-04-16 04:50 pm SW 21 26------ 50.5- 44.6---